Eastport, Maryland
Current Conditions -  °F | °C
As of 6:54 PM on Thursday 18 Dec 2014 (Local Time) from KNAK Reporting Station
Overcast Overcast  
Wind Chill: 32°   Ceiling: 4200
Heat Index: 37°   Visibility: 10mi
Dew Point: 23°   Wind: 6mph
Humidity: 57%   Direction: 290°WNW
Pressure: 30.11"   Gusts: NA
Location:  38.946°N, 76.491°W
Report Text: KNAK 182354Z AUTO 29005KT 10SM OVC042 03/M05 A3011 RMK AO2 SLP198 T00281050 10044 20022 51008 $
Loading
Personal Weather Stations






























Interactive Weather Map New forecast layout! Learn more

10-Day Weather Forecast

Advertisements
Track Severe Weather on mobile